sensor_id;sensor_type;location;lat;lon;timestamp;P1;durP1;ratioP1;P2;durP2;ratioP2
8592;SDS011;4334;49.982;8.398;2022-12-10T00:00:41;20.37;;;12.17;;
8592;SDS011;4334;49.982;8.398;2022-12-10T00:03:07;24.80;;;12.73;;
8592;SDS011;4334;49.982;8.398;2022-12-10T00:05:34;21.47;;;12.43;;
8592;SDS011;4334;49.982;8.398;2022-12-10T00:08:03;21.13;;;11.73;;
8592;SDS011;4334;49.982;8.398;2022-12-10T00:10:29;21.93;;;12.10;;
8592;SDS011;4334;49.982;8.398;2022-12-10T00:12:56;20.10;;;11.40;;
8592;SDS011;4334;49.982;8.398;2022-12-10T00:15:23;22.63;;;11.70;;
8592;SDS011;4334;49.982;8.398;2022-12-10T00:17:50;19.40;;;11.87;;
8592;SDS011;4334;49.982;8.398;2022-12-10T00:20:17;18.33;;;11.57;;
8592;SDS011;4334;49.982;8.398;2022-12-10T00:22:43;18.73;;;11.30;;
8592;SDS011;4334;49.982;8.398;2022-12-10T00:25:11;16.97;;;10.90;;
8592;SDS011;4334;49.982;8.398;2022-12-10T00:27:38;18.40;;;11.43;;
8592;SDS011;4334;49.982;8.398;2022-12-10T00:30:05;21.27;;;11.57;;
8592;SDS011;4334;49.982;8.398;2022-12-10T00:32:32;21.20;;;11.90;;
8592;SDS011;4334;49.982;8.398;2022-12-10T00:34:59;23.70;;;12.60;;
8592;SDS011;4334;49.982;8.398;2022-12-10T00:37:26;20.73;;;12.23;;
8592;SDS011;4334;49.982;8.398;2022-12-10T00:39:53;21.00;;;12.17;;
8592;SDS011;4334;49.982;8.398;2022-12-10T00:42:21;19.13;;;11.47;;
8592;SDS011;4334;49.982;8.398;2022-12-10T00:44:47;19.40;;;12.10;;
8592;SDS011;4334;49.982;8.398;2022-12-10T00:47:14;21.63;;;12.40;;
8592;SDS011;4334;49.982;8.398;2022-12-10T00:49:41;20.30;;;11.70;;
8592;SDS011;4334;49.982;8.398;2022-12-10T00:52:08;20.53;;;12.23;;
8592;SDS011;4334;49.982;8.398;2022-12-10T00:54:35;23.50;;;11.27;;
8592;SDS011;4334;49.982;8.398;2022-12-10T00:57:02;19.13;;;11.17;;
8592;SDS011;4334;49.982;8.398;2022-12-10T00:59:30;19.37;;;11.93;;
8592;SDS011;4334;49.982;8.398;2022-12-10T01:01:57;21.20;;;12.20;;
8592;SDS011;4334;49.982;8.398;2022-12-10T01:04:24;21.00;;;12.53;;
8592;SDS011;4334;49.982;8.398;2022-12-10T01:06:51;19.90;;;11.50;;
8592;SDS011;4334;49.982;8.398;2022-12-10T01:09:20;21.03;;;12.07;;
8592;SDS011;4334;49.982;8.398;2022-12-10T01:11:48;22.37;;;12.23;;
8592;SDS011;4334;49.982;8.398;2022-12-10T01:14:17;20.70;;;11.77;;
8592;SDS011;4334;49.982;8.398;2022-12-10T01:16:46;20.13;;;12.07;;
8592;SDS011;4334;49.982;8.398;2022-12-10T01:19:13;20.27;;;11.53;;
8592;SDS011;4334;49.982;8.398;2022-12-10T01:21:40;21.50;;;11.93;;
8592;SDS011;4334;49.982;8.398;2022-12-10T01:24:07;20.47;;;12.23;;
8592;SDS011;4334;49.982;8.398;2022-12-10T01:26:34;21.13;;;12.73;;
8592;SDS011;4334;49.982;8.398;2022-12-10T01:29:02;20.97;;;11.90;;
8592;SDS011;4334;49.982;8.398;2022-12-10T01:31:30;23.33;;;12.80;;
8592;SDS011;4334;49.982;8.398;2022-12-10T01:34:00;20.57;;;12.37;;
8592;SDS011;4334;49.982;8.398;2022-12-10T01:36:29;20.37;;;12.43;;
8592;SDS011;4334;49.982;8.398;2022-12-10T01:38:57;21.77;;;12.77;;
8592;SDS011;4334;49.982;8.398;2022-12-10T01:41:25;21.53;;;12.20;;
8592;SDS011;4334;49.982;8.398;2022-12-10T01:43:55;23.57;;;13.23;;
8592;SDS011;4334;49.982;8.398;2022-12-10T01:46:23;21.03;;;12.03;;
8592;SDS011;4334;49.982;8.398;2022-12-10T01:48:52;22.90;;;13.03;;
8592;SDS011;4334;49.982;8.398;2022-12-10T01:51:20;22.07;;;12.80;;
8592;SDS011;4334;49.982;8.398;2022-12-10T01:53:49;23.47;;;12.77;;
8592;SDS011;4334;49.982;8.398;2022-12-10T01:56:16;20.50;;;11.97;;
8592;SDS011;4334;49.982;8.398;2022-12-10T01:58:44;22.40;;;12.87;;
8592;SDS011;4334;49.982;8.398;2022-12-10T02:01:13;22.50;;;13.67;;
8592;SDS011;4334;49.982;8.398;2022-12-10T02:03:48;20.83;;;12.20;;
8592;SDS011;4334;49.982;8.398;2022-12-10T02:06:30;22.37;;;13.43;;
8592;SDS011;4334;49.982;8.398;2022-12-10T02:09:07;22.57;;;12.57;;
8592;SDS011;4334;49.982;8.398;2022-12-10T02:11:59;22.70;;;12.97;;
8592;SDS011;4334;49.982;8.398;2022-12-10T02:14:38;22.30;;;12.43;;
8592;SDS011;4334;49.982;8.398;2022-12-10T02:17:12;18.73;;;11.33;;
8592;SDS011;4334;49.982;8.398;2022-12-10T02:19:51;18.93;;;11.47;;
8592;SDS011;4334;49.982;8.398;2022-12-10T02:22:25;16.80;;;10.33;;
8592;SDS011;4334;49.982;8.398;2022-12-10T02:24:54;17.83;;;9.83;;
8592;SDS011;4334;49.982;8.398;2022-12-10T02:27:24;17.63;;;10.83;;
8592;SDS011;4334;49.982;8.398;2022-12-10T02:29:57;20.27;;;10.43;;
8592;SDS011;4334;49.982;8.398;2022-12-10T02:32:26;15.93;;;9.77;;
8592;SDS011;4334;49.982;8.398;2022-12-10T02:34:59;18.43;;;10.33;;
8592;SDS011;4334;49.982;8.398;2022-12-10T02:37:30;17.23;;;9.93;;
8592;SDS011;4334;49.982;8.398;2022-12-10T02:40:01;16.77;;;9.63;;
8592;SDS011;4334;49.982;8.398;2022-12-10T02:42:32;15.80;;;9.27;;
8592;SDS011;4334;49.982;8.398;2022-12-10T02:45:04;18.47;;;10.27;;
8592;SDS011;4334;49.982;8.398;2022-12-10T02:47:32;16.37;;;9.03;;
8592;SDS011;4334;49.982;8.398;2022-12-10T02:50:00;14.53;;;8.80;;
8592;SDS011;4334;49.982;8.398;2022-12-10T02:52:28;17.50;;;8.87;;
8592;SDS011;4334;49.982;8.398;2022-12-10T02:54:55;17.57;;;9.80;;
8592;SDS011;4334;49.982;8.398;2022-12-10T02:57:28;15.63;;;9.17;;
8592;SDS011;4334;49.982;8.398;2022-12-10T03:00:05;16.17;;;9.47;;
8592;SDS011;4334;49.982;8.398;2022-12-10T03:02:40;14.53;;;8.80;;
8592;SDS011;4334;49.982;8.398;2022-12-10T03:05:14;16.10;;;9.30;;
8592;SDS011;4334;49.982;8.398;2022-12-10T03:07:47;15.03;;;8.87;;
8592;SDS011;4334;49.982;8.398;2022-12-10T03:10:24;14.97;;;8.97;;
8592;SDS011;4334;49.982;8.398;2022-12-10T03:12:54;13.77;;;8.23;;
8592;SDS011;4334;49.982;8.398;2022-12-10T03:15:26;13.00;;;8.30;;
8592;SDS011;4334;49.982;8.398;2022-12-10T03:17:57;14.57;;;9.20;;
8592;SDS011;4334;49.982;8.398;2022-12-10T03:20:26;15.27;;;8.97;;
8592;SDS011;4334;49.982;8.398;2022-12-10T03:22:54;15.60;;;9.37;;
8592;SDS011;4334;49.982;8.398;2022-12-10T03:25:23;14.17;;;8.37;;
8592;SDS011;4334;49.982;8.398;2022-12-10T03:27:51;13.97;;;8.13;;
8592;SDS011;4334;49.982;8.398;2022-12-10T03:30:21;14.30;;;9.13;;
8592;SDS011;4334;49.982;8.398;2022-12-10T03:32:50;15.53;;;9.27;;
8592;SDS011;4334;49.982;8.398;2022-12-10T03:35:18;19.70;;;9.37;;
8592;SDS011;4334;49.982;8.398;2022-12-10T03:37:48;15.60;;;8.87;;
8592;SDS011;4334;49.982;8.398;2022-12-10T03:40:15;15.13;;;8.70;;
8592;SDS011;4334;49.982;8.398;2022-12-10T03:42:44;13.90;;;8.50;;
8592;SDS011;4334;49.982;8.398;2022-12-10T03:45:11;13.57;;;8.43;;
8592;SDS011;4334;49.982;8.398;2022-12-10T03:47:38;13.83;;;8.23;;
8592;SDS011;4334;49.982;8.398;2022-12-10T03:50:07;15.07;;;8.90;;
8592;SDS011;4334;49.982;8.398;2022-12-10T03:52:35;14.73;;;8.37;;
8592;SDS011;4334;49.982;8.398;2022-12-10T03:55:02;13.77;;;8.03;;
8592;SDS011;4334;49.982;8.398;2022-12-10T03:57:29;12.40;;;7.83;;
8592;SDS011;4334;49.982;8.398;2022-12-10T03:59:55;13.77;;;7.57;;
8592;SDS011;4334;49.982;8.398;2022-12-10T04:02:22;13.20;;;7.90;;
8592;SDS011;4334;49.982;8.398;2022-12-10T04:04:49;13.63;;;7.83;;
8592;SDS011;4334;49.982;8.398;2022-12-10T04:07:17;17.27;;;8.17;;
8592;SDS011;4334;49.982;8.398;2022-12-10T04:09:44;14.60;;;8.33;;
8592;SDS011;4334;49.982;8.398;2022-12-10T04:12:11;13.13;;;8.47;;
8592;SDS011;4334;49.982;8.398;2022-12-10T04:14:38;15.37;;;8.70;;
8592;SDS011;4334;49.982;8.398;2022-12-10T04:17:22;15.53;;;8.50;;
8592;SDS011;4334;49.982;8.398;2022-12-10T04:19:49;12.93;;;8.13;;
8592;SDS011;4334;49.982;8.398;2022-12-10T04:22:17;14.43;;;8.73;;
8592;SDS011;4334;49.982;8.398;2022-12-10T04:25:02;14.03;;;8.13;;
8592;SDS011;4334;49.982;8.398;2022-12-10T04:27:46;18.30;;;9.70;;
8592;SDS011;4334;49.982;8.398;2022-12-10T04:30:13;14.77;;;8.90;;
8592;SDS011;4334;49.982;8.398;2022-12-10T04:32:40;14.23;;;8.90;;
8592;SDS011;4334;49.982;8.398;2022-12-10T04:35:07;15.73;;;8.80;;
8592;SDS011;4334;49.982;8.398;2022-12-10T04:37:36;15.83;;;9.30;;
8592;SDS011;4334;49.982;8.398;2022-12-10T04:40:03;17.83;;;9.30;;
8592;SDS011;4334;49.982;8.398;2022-12-10T04:42:31;14.70;;;9.07;;
8592;SDS011;4334;49.982;8.398;2022-12-10T04:44:58;15.87;;;8.30;;
8592;SDS011;4334;49.982;8.398;2022-12-10T04:47:25;14.97;;;8.77;;
8592;SDS011;4334;49.982;8.398;2022-12-10T04:49:51;15.63;;;9.37;;
8592;SDS011;4334;49.982;8.398;2022-12-10T04:52:18;15.87;;;9.13;;
8592;SDS011;4334;49.982;8.398;2022-12-10T04:54:47;17.83;;;9.83;;
8592;SDS011;4334;49.982;8.398;2022-12-10T04:57:13;15.77;;;9.73;;
8592;SDS011;4334;49.982;8.398;2022-12-10T04:59:40;17.23;;;9.97;;
8592;SDS011;4334;49.982;8.398;2022-12-10T05:02:08;17.13;;;9.93;;
8592;SDS011;4334;49.982;8.398;2022-12-10T05:04:35;18.00;;;9.80;;
8592;SDS011;4334;49.982;8.398;2022-12-10T05:07:02;19.27;;;9.83;;
8592;SDS011;4334;49.982;8.398;2022-12-10T05:09:28;18.20;;;10.03;;
8592;SDS011;4334;49.982;8.398;2022-12-10T05:11:57;17.20;;;10.10;;
8592;SDS011;4334;49.982;8.398;2022-12-10T05:14:24;14.43;;;8.67;;
8592;SDS011;4334;49.982;8.398;2022-12-10T05:16:54;13.73;;;8.23;;
8592;SDS011;4334;49.982;8.398;2022-12-10T05:19:20;16.67;;;9.03;;
8592;SDS011;4334;49.982;8.398;2022-12-10T05:21:48;16.27;;;8.33;;
8592;SDS011;4334;49.982;8.398;2022-12-10T05:24:33;14.90;;;8.30;;
8592;SDS011;4334;49.982;8.398;2022-12-10T05:27:02;13.47;;;8.73;;
8592;SDS011;4334;49.982;8.398;2022-12-10T05:29:30;17.37;;;10.47;;
8592;SDS011;4334;49.982;8.398;2022-12-10T05:31:58;16.10;;;8.90;;
8592;SDS011;4334;49.982;8.398;2022-12-10T05:34:25;14.53;;;8.17;;
8592;SDS011;4334;49.982;8.398;2022-12-10T05:36:51;20.03;;;8.63;;
8592;SDS011;4334;49.982;8.398;2022-12-10T05:39:18;15.33;;;9.00;;
8592;SDS011;4334;49.982;8.398;2022-12-10T05:41:45;17.10;;;9.47;;
8592;SDS011;4334;49.982;8.398;2022-12-10T05:44:13;17.20;;;9.17;;
8592;SDS011;4334;49.982;8.398;2022-12-10T05:46:40;15.83;;;9.43;;
8592;SDS011;4334;49.982;8.398;2022-12-10T05:49:07;15.43;;;8.70;;
8592;SDS011;4334;49.982;8.398;2022-12-10T05:51:35;15.23;;;9.53;;
8592;SDS011;4334;49.982;8.398;2022-12-10T05:54:03;15.97;;;9.30;;
8592;SDS011;4334;49.982;8.398;2022-12-10T05:56:31;15.70;;;9.10;;
8592;SDS011;4334;49.982;8.398;2022-12-10T05:58:59;20.93;;;10.17;;
8592;SDS011;4334;49.982;8.398;2022-12-10T06:01:29;16.17;;;9.23;;
8592;SDS011;4334;49.982;8.398;2022-12-10T06:03:58;16.60;;;9.30;;
8592;SDS011;4334;49.982;8.398;2022-12-10T06:06:26;16.97;;;9.00;;
8592;SDS011;4334;49.982;8.398;2022-12-10T06:08:55;14.20;;;8.73;;
8592;SDS011;4334;49.982;8.398;2022-12-10T06:11:23;17.17;;;10.17;;
8592;SDS011;4334;49.982;8.398;2022-12-10T06:13:51;18.90;;;10.47;;
8592;SDS011;4334;49.982;8.398;2022-12-10T06:16:19;15.53;;;9.63;;
8592;SDS011;4334;49.982;8.398;2022-12-10T06:18:48;17.70;;;10.57;;
8592;SDS011;4334;49.982;8.398;2022-12-10T06:21:15;16.50;;;8.80;;
8592;SDS011;4334;49.982;8.398;2022-12-10T06:23:43;18.63;;;9.80;;
8592;SDS011;4334;49.982;8.398;2022-12-10T06:26:12;17.97;;;10.30;;
8592;SDS011;4334;49.982;8.398;2022-12-10T06:28:40;17.83;;;10.83;;
8592;SDS011;4334;49.982;8.398;2022-12-10T06:31:09;22.43;;;10.70;;
8592;SDS011;4334;49.982;8.398;2022-12-10T06:33:36;18.83;;;9.97;;
8592;SDS011;4334;49.982;8.398;2022-12-10T06:36:05;19.97;;;10.97;;
8592;SDS011;4334;49.982;8.398;2022-12-10T06:38:34;19.97;;;11.27;;
8592;SDS011;4334;49.982;8.398;2022-12-10T06:41:03;20.13;;;10.93;;
8592;SDS011;4334;49.982;8.398;2022-12-10T06:43:32;23.40;;;11.70;;
8592;SDS011;4334;49.982;8.398;2022-12-10T06:46:00;20.53;;;11.50;;
8592;SDS011;4334;49.982;8.398;2022-12-10T06:48:30;18.47;;;10.23;;
8592;SDS011;4334;49.982;8.398;2022-12-10T06:50:57;18.50;;;9.83;;
8592;SDS011;4334;49.982;8.398;2022-12-10T06:53:25;20.20;;;10.50;;
8592;SDS011;4334;49.982;8.398;2022-12-10T06:55:52;22.00;;;10.27;;
8592;SDS011;4334;49.982;8.398;2022-12-10T06:58:19;19.70;;;11.23;;
8592;SDS011;4334;49.982;8.398;2022-12-10T07:00:46;16.17;;;9.30;;
8592;SDS011;4334;49.982;8.398;2022-12-10T07:03:13;18.73;;;10.20;;
8592;SDS011;4334;49.982;8.398;2022-12-10T07:05:40;20.07;;;11.00;;
8592;SDS011;4334;49.982;8.398;2022-12-10T07:08:07;17.20;;;10.03;;
8592;SDS011;4334;49.982;8.398;2022-12-10T07:10:35;15.43;;;8.43;;
8592;SDS011;4334;49.982;8.398;2022-12-10T07:13:03;19.40;;;9.90;;
8592;SDS011;4334;49.982;8.398;2022-12-10T07:15:30;18.63;;;10.00;;
8592;SDS011;4334;49.982;8.398;2022-12-10T07:17:57;18.17;;;9.87;;
8592;SDS011;4334;49.982;8.398;2022-12-10T07:20:24;18.27;;;10.07;;
8592;SDS011;4334;49.982;8.398;2022-12-10T07:22:51;18.17;;;10.93;;
8592;SDS011;4334;49.982;8.398;2022-12-10T07:25:18;17.50;;;9.47;;
8592;SDS011;4334;49.982;8.398;2022-12-10T07:27:46;17.87;;;10.57;;
8592;SDS011;4334;49.982;8.398;2022-12-10T07:30:14;18.30;;;10.47;;
8592;SDS011;4334;49.982;8.398;2022-12-10T07:32:41;18.93;;;10.63;;
8592;SDS011;4334;49.982;8.398;2022-12-10T07:35:08;19.43;;;11.10;;
8592;SDS011;4334;49.982;8.398;2022-12-10T07:37:35;19.70;;;10.63;;
8592;SDS011;4334;49.982;8.398;2022-12-10T07:40:02;20.07;;;10.47;;
8592;SDS011;4334;49.982;8.398;2022-12-10T07:42:30;19.40;;;10.60;;
8592;SDS011;4334;49.982;8.398;2022-12-10T07:44:58;18.20;;;10.80;;
8592;SDS011;4334;49.982;8.398;2022-12-10T07:47:25;16.43;;;11.00;;
8592;SDS011;4334;49.982;8.398;2022-12-10T07:49:55;19.63;;;11.33;;
8592;SDS011;4334;49.982;8.398;2022-12-10T07:52:22;19.27;;;11.20;;
8592;SDS011;4334;49.982;8.398;2022-12-10T07:54:49;16.43;;;9.80;;
8592;SDS011;4334;49.982;8.398;2022-12-10T07:57:16;17.70;;;10.27;;
8592;SDS011;4334;49.982;8.398;2022-12-10T07:59:43;16.70;;;9.83;;
8592;SDS011;4334;49.982;8.398;2022-12-10T08:02:11;17.77;;;10.00;;
8592;SDS011;4334;49.982;8.398;2022-12-10T08:04:38;17.37;;;10.40;;
8592;SDS011;4334;49.982;8.398;2022-12-10T08:07:09;16.30;;;10.07;;
8592;SDS011;4334;49.982;8.398;2022-12-10T08:09:36;29.27;;;10.73;;
8592;SDS011;4334;49.982;8.398;2022-12-10T08:12:03;17.07;;;10.53;;
8592;SDS011;4334;49.982;8.398;2022-12-10T08:14:30;17.20;;;10.07;;
8592;SDS011;4334;49.982;8.398;2022-12-10T08:16:57;19.93;;;10.10;;
8592;SDS011;4334;49.982;8.398;2022-12-10T08:19:28;15.77;;;10.03;;
8592;SDS011;4334;49.982;8.398;2022-12-10T08:21:54;16.23;;;9.63;;
8592;SDS011;4334;49.982;8.398;2022-12-10T08:24:21;15.97;;;9.77;;
8592;SDS011;4334;49.982;8.398;2022-12-10T08:26:48;16.67;;;9.97;;
8592;SDS011;4334;49.982;8.398;2022-12-10T08:29:17;17.83;;;10.77;;
8592;SDS011;4334;49.982;8.398;2022-12-10T08:31:44;16.10;;;9.83;;
8592;SDS011;4334;49.982;8.398;2022-12-10T08:34:12;14.80;;;9.87;;
8592;SDS011;4334;49.982;8.398;2022-12-10T08:36:40;16.27;;;10.20;;
8592;SDS011;4334;49.982;8.398;2022-12-10T08:39:08;15.13;;;10.13;;
8592;SDS011;4334;49.982;8.398;2022-12-10T08:41:40;14.80;;;9.30;;
8592;SDS011;4334;49.982;8.398;2022-12-10T08:44:07;15.67;;;9.73;;
8592;SDS011;4334;49.982;8.398;2022-12-10T08:46:34;16.17;;;9.70;;
8592;SDS011;4334;49.982;8.398;2022-12-10T08:49:02;15.87;;;9.43;;
8592;SDS011;4334;49.982;8.398;2022-12-10T08:51:29;21.03;;;10.10;;
8592;SDS011;4334;49.982;8.398;2022-12-10T08:53:58;18.07;;;9.67;;
8592;SDS011;4334;49.982;8.398;2022-12-10T08:56:24;18.37;;;10.33;;
8592;SDS011;4334;49.982;8.398;2022-12-10T08:58:51;18.77;;;11.33;;
8592;SDS011;4334;49.982;8.398;2022-12-10T09:01:18;16.47;;;10.67;;
8592;SDS011;4334;49.982;8.398;2022-12-10T09:03:45;15.30;;;10.30;;
8592;SDS011;4334;49.982;8.398;2022-12-10T09:06:13;15.30;;;9.63;;
8592;SDS011;4334;49.982;8.398;2022-12-10T09:08:41;15.10;;;9.83;;
8592;SDS011;4334;49.982;8.398;2022-12-10T09:11:11;16.10;;;10.30;;
8592;SDS011;4334;49.982;8.398;2022-12-10T09:13:40;16.63;;;10.40;;
8592;SDS011;4334;49.982;8.398;2022-12-10T09:16:08;16.43;;;10.57;;
8592;SDS011;4334;49.982;8.398;2022-12-10T09:18:35;16.97;;;10.27;;
8592;SDS011;4334;49.982;8.398;2022-12-10T09:21:04;17.40;;;10.07;;
8592;SDS011;4334;49.982;8.398;2022-12-10T09:23:31;15.23;;;10.07;;
8592;SDS011;4334;49.982;8.398;2022-12-10T09:25:58;15.83;;;10.13;;
8592;SDS011;4334;49.982;8.398;2022-12-10T09:28:26;17.13;;;9.50;;
8592;SDS011;4334;49.982;8.398;2022-12-10T09:30:56;17.13;;;10.40;;
8592;SDS011;4334;49.982;8.398;2022-12-10T09:33:24;15.20;;;9.43;;
8592;SDS011;4334;49.982;8.398;2022-12-10T09:35:52;15.03;;;9.47;;
8592;SDS011;4334;49.982;8.398;2022-12-10T09:38:19;15.20;;;9.77;;
8592;SDS011;4334;49.982;8.398;2022-12-10T09:40:47;13.70;;;9.17;;
8592;SDS011;4334;49.982;8.398;2022-12-10T09:43:22;14.40;;;9.53;;
8592;SDS011;4334;49.982;8.398;2022-12-10T09:46:01;15.53;;;8.97;;
8592;SDS011;4334;49.982;8.398;2022-12-10T09:48:36;13.47;;;8.63;;
8592;SDS011;4334;49.982;8.398;2022-12-10T09:51:13;13.10;;;8.33;;
8592;SDS011;4334;49.982;8.398;2022-12-10T09:53:45;11.60;;;7.97;;
8592;SDS011;4334;49.982;8.398;2022-12-10T09:56:18;13.63;;;8.33;;
8592;SDS011;4334;49.982;8.398;2022-12-10T09:58:52;12.67;;;7.63;;
8592;SDS011;4334;49.982;8.398;2022-12-10T10:01:27;13.37;;;8.47;;
8592;SDS011;4334;49.982;8.398;2022-12-10T10:03:55;15.67;;;9.03;;
8592;SDS011;4334;49.982;8.398;2022-12-10T10:06:26;12.27;;;8.00;;
8592;SDS011;4334;49.982;8.398;2022-12-10T10:08:55;12.63;;;8.10;;
8592;SDS011;4334;49.982;8.398;2022-12-10T10:11:27;12.50;;;8.27;;
8592;SDS011;4334;49.982;8.398;2022-12-10T10:13:57;11.30;;;7.20;;
8592;SDS011;4334;49.982;8.398;2022-12-10T10:16:27;12.03;;;8.43;;
8592;SDS011;4334;49.982;8.398;2022-12-10T10:19:00;11.50;;;7.60;;
8592;SDS011;4334;49.982;8.398;2022-12-10T10:21:29;11.73;;;7.83;;
8592;SDS011;4334;49.982;8.398;2022-12-10T10:24:00;12.47;;;8.13;;
8592;SDS011;4334;49.982;8.398;2022-12-10T10:26:27;11.83;;;8.10;;
8592;SDS011;4334;49.982;8.398;2022-12-10T10:28:55;12.50;;;8.23;;
8592;SDS011;4334;49.982;8.398;2022-12-10T10:31:28;12.20;;;7.80;;
8592;SDS011;4334;49.982;8.398;2022-12-10T10:33:56;13.00;;;7.97;;
8592;SDS011;4334;49.982;8.398;2022-12-10T10:36:26;12.30;;;8.47;;
8592;SDS011;4334;49.982;8.398;2022-12-10T10:38:54;10.90;;;7.50;;
8592;SDS011;4334;49.982;8.398;2022-12-10T10:41:23;12.40;;;7.80;;
8592;SDS011;4334;49.982;8.398;2022-12-10T10:43:51;12.70;;;7.77;;
8592;SDS011;4334;49.982;8.398;2022-12-10T10:46:28;12.47;;;7.97;;
8592;SDS011;4334;49.982;8.398;2022-12-10T10:49:11;10.63;;;7.37;;
8592;SDS011;4334;49.982;8.398;2022-12-10T10:51:42;12.63;;;7.67;;
8592;SDS011;4334;49.982;8.398;2022-12-10T10:54:10;14.47;;;8.07;;
8592;SDS011;4334;49.982;8.398;2022-12-10T10:56:39;12.80;;;7.80;;
8592;SDS011;4334;49.982;8.398;2022-12-10T10:59:19;13.43;;;7.80;;
8592;SDS011;4334;49.982;8.398;2022-12-10T11:01:58;14.67;;;8.00;;
8592;SDS011;4334;49.982;8.398;2022-12-10T11:04:29;12.93;;;8.10;;
8592;SDS011;4334;49.982;8.398;2022-12-10T11:07:02;11.80;;;7.77;;
8592;SDS011;4334;49.982;8.398;2022-12-10T11:09:32;14.10;;;7.73;;
8592;SDS011;4334;49.982;8.398;2022-12-10T11:12:01;13.30;;;7.93;;
8592;SDS011;4334;49.982;8.398;2022-12-10T11:14:30;15.93;;;8.77;;
8592;SDS011;4334;49.982;8.398;2022-12-10T11:17:07;12.43;;;8.07;;
8592;SDS011;4334;49.982;8.398;2022-12-10T11:19:44;12.43;;;8.03;;
8592;SDS011;4334;49.982;8.398;2022-12-10T11:22:21;9.03;;;6.33;;
8592;SDS011;4334;49.982;8.398;2022-12-10T11:24:49;10.27;;;6.53;;
8592;SDS011;4334;49.982;8.398;2022-12-10T11:27:18;11.10;;;6.97;;
8592;SDS011;4334;49.982;8.398;2022-12-10T11:29:57;10.47;;;6.80;;
8592;SDS011;4334;49.982;8.398;2022-12-10T11:32:33;8.33;;;6.60;;
8592;SDS011;4334;49.982;8.398;2022-12-10T11:35:12;8.73;;;6.10;;
8592;SDS011;4334;49.982;8.398;2022-12-10T11:37:49;8.30;;;5.90;;
8592;SDS011;4334;49.982;8.398;2022-12-10T11:40:30;9.27;;;6.47;;
8592;SDS011;4334;49.982;8.398;2022-12-10T11:43:05;9.50;;;5.50;;
8592;SDS011;4334;49.982;8.398;2022-12-10T11:45:47;9.10;;;6.10;;
8592;SDS011;4334;49.982;8.398;2022-12-10T11:48:29;8.77;;;6.33;;
8592;SDS011;4334;49.982;8.398;2022-12-10T11:51:07;8.60;;;5.60;;
8592;SDS011;4334;49.982;8.398;2022-12-10T11:53:42;8.23;;;6.13;;
8592;SDS011;4334;49.982;8.398;2022-12-10T11:56:26;8.73;;;5.83;;
8592;SDS011;4334;49.982;8.398;2022-12-10T11:59:04;8.73;;;6.10;;
8592;SDS011;4334;49.982;8.398;2022-12-10T12:01:59;9.50;;;6.40;;
8592;SDS011;4334;49.982;8.398;2022-12-10T12:04:46;9.30;;;6.40;;
8592;SDS011;4334;49.982;8.398;2022-12-10T12:07:26;8.20;;;5.57;;
8592;SDS011;4334;49.982;8.398;2022-12-10T12:10:11;8.10;;;5.67;;
8592;SDS011;4334;49.982;8.398;2022-12-10T12:13:12;9.30;;;6.53;;
8592;SDS011;4334;49.982;8.398;2022-12-10T12:15:44;8.10;;;5.73;;
8592;SDS011;4334;49.982;8.398;2022-12-10T12:18:17;10.33;;;5.73;;
8592;SDS011;4334;49.982;8.398;2022-12-10T12:20:51;7.70;;;5.73;;
8592;SDS011;4334;49.982;8.398;2022-12-10T12:23:23;10.53;;;5.50;;
8592;SDS011;4334;49.982;8.398;2022-12-10T12:25:55;9.57;;;7.23;;
8592;SDS011;4334;49.982;8.398;2022-12-10T12:28:27;9.53;;;5.47;;
8592;SDS011;4334;49.982;8.398;2022-12-10T12:31:02;9.57;;;7.00;;
8592;SDS011;4334;49.982;8.398;2022-12-10T12:33:35;11.57;;;7.60;;
8592;SDS011;4334;49.982;8.398;2022-12-10T12:36:09;10.03;;;6.67;;
8592;SDS011;4334;49.982;8.398;2022-12-10T12:38:41;10.63;;;7.17;;
8592;SDS011;4334;49.982;8.398;2022-12-10T12:41:13;10.07;;;7.37;;
8592;SDS011;4334;49.982;8.398;2022-12-10T12:43:44;11.10;;;7.63;;
8592;SDS011;4334;49.982;8.398;2022-12-10T12:46:19;11.97;;;7.73;;
8592;SDS011;4334;49.982;8.398;2022-12-10T12:48:53;8.93;;;6.07;;
8592;SDS011;4334;49.982;8.398;2022-12-10T12:51:29;12.03;;;7.57;;
8592;SDS011;4334;49.982;8.398;2022-12-10T12:54:03;12.43;;;7.90;;
8592;SDS011;4334;49.982;8.398;2022-12-10T12:56:35;11.07;;;7.47;;
8592;SDS011;4334;49.982;8.398;2022-12-10T12:59:19;13.07;;;8.53;;
8592;SDS011;4334;49.982;8.398;2022-12-10T13:01:57;14.00;;;7.60;;
8592;SDS011;4334;49.982;8.398;2022-12-10T13:04:32;11.60;;;7.67;;
8592;SDS011;4334;49.982;8.398;2022-12-10T13:07:11;15.20;;;8.83;;
8592;SDS011;4334;49.982;8.398;2022-12-10T13:10:07;11.07;;;7.33;;
8592;SDS011;4334;49.982;8.398;2022-12-10T13:12:47;10.47;;;6.63;;
8592;SDS011;4334;49.982;8.398;2022-12-10T13:15:18;14.37;;;7.90;;
8592;SDS011;4334;49.982;8.398;2022-12-10T13:18:04;12.47;;;7.93;;
8592;SDS011;4334;49.982;8.398;2022-12-10T13:20:46;11.07;;;6.70;;
8592;SDS011;4334;49.982;8.398;2022-12-10T13:23:30;11.30;;;7.37;;
8592;SDS011;4334;49.982;8.398;2022-12-10T13:25:59;12.23;;;7.90;;
8592;SDS011;4334;49.982;8.398;2022-12-10T13:28:29;11.30;;;7.57;;
8592;SDS011;4334;49.982;8.398;2022-12-10T13:31:08;12.23;;;7.87;;
8592;SDS011;4334;49.982;8.398;2022-12-10T13:33:47;10.23;;;7.00;;
8592;SDS011;4334;49.982;8.398;2022-12-10T13:36:20;10.27;;;6.90;;
8592;SDS011;4334;49.982;8.398;2022-12-10T13:39:10;10.47;;;6.50;;
8592;SDS011;4334;49.982;8.398;2022-12-10T13:41:39;9.63;;;6.70;;
8592;SDS011;4334;49.982;8.398;2022-12-10T13:44:34;10.33;;;6.93;;
8592;SDS011;4334;49.982;8.398;2022-12-10T13:47:21;11.67;;;7.83;;
8592;SDS011;4334;49.982;8.398;2022-12-10T13:49:53;11.73;;;7.53;;
8592;SDS011;4334;49.982;8.398;2022-12-10T13:52:23;8.60;;;5.67;;
8592;SDS011;4334;49.982;8.398;2022-12-10T13:55:10;10.47;;;7.07;;
8592;SDS011;4334;49.982;8.398;2022-12-10T13:58:02;14.03;;;6.53;;
8592;SDS011;4334;49.982;8.398;2022-12-10T14:00:38;10.60;;;6.50;;
8592;SDS011;4334;49.982;8.398;2022-12-10T14:03:19;10.80;;;6.43;;
8592;SDS011;4334;49.982;8.398;2022-12-10T14:06:09;11.47;;;7.00;;
8592;SDS011;4334;49.982;8.398;2022-12-10T14:08:43;9.57;;;6.30;;
8592;SDS011;4334;49.982;8.398;2022-12-10T14:11:21;10.97;;;7.30;;
8592;SDS011;4334;49.982;8.398;2022-12-10T14:13:52;10.23;;;6.60;;
8592;SDS011;4334;49.982;8.398;2022-12-10T14:16:22;10.43;;;7.07;;
8592;SDS011;4334;49.982;8.398;2022-12-10T14:18:53;10.23;;;6.27;;
8592;SDS011;4334;49.982;8.398;2022-12-10T14:21:22;10.83;;;7.13;;
8592;SDS011;4334;49.982;8.398;2022-12-10T14:23:50;12.20;;;7.80;;
8592;SDS011;4334;49.982;8.398;2022-12-10T14:26:19;13.23;;;7.83;;
8592;SDS011;4334;49.982;8.398;2022-12-10T14:28:54;9.80;;;6.60;;
8592;SDS011;4334;49.982;8.398;2022-12-10T14:31:24;10.27;;;6.83;;
8592;SDS011;4334;49.982;8.398;2022-12-10T14:33:55;10.97;;;6.83;;
8592;SDS011;4334;49.982;8.398;2022-12-10T14:36:26;10.60;;;6.87;;
8592;SDS011;4334;49.982;8.398;2022-12-10T14:38:55;12.13;;;6.87;;
8592;SDS011;4334;49.982;8.398;2022-12-10T14:41:24;12.33;;;7.97;;
8592;SDS011;4334;49.982;8.398;2022-12-10T14:43:53;15.87;;;7.87;;
8592;SDS011;4334;49.982;8.398;2022-12-10T14:46:22;14.37;;;7.60;;
8592;SDS011;4334;49.982;8.398;2022-12-10T14:48:51;13.70;;;7.73;;
8592;SDS011;4334;49.982;8.398;2022-12-10T14:51:20;11.67;;;6.70;;
8592;SDS011;4334;49.982;8.398;2022-12-10T14:53:49;11.03;;;7.40;;
8592;SDS011;4334;49.982;8.398;2022-12-10T14:56:19;11.73;;;7.77;;
8592;SDS011;4334;49.982;8.398;2022-12-10T14:58:52;9.43;;;6.60;;
8592;SDS011;4334;49.982;8.398;2022-12-10T15:01:26;13.73;;;8.17;;
8592;SDS011;4334;49.982;8.398;2022-12-10T15:03:56;14.07;;;7.63;;
8592;SDS011;4334;49.982;8.398;2022-12-10T15:06:25;12.20;;;8.00;;
8592;SDS011;4334;49.982;8.398;2022-12-10T15:08:53;14.57;;;8.07;;
8592;SDS011;4334;49.982;8.398;2022-12-10T15:11:23;12.47;;;7.70;;
8592;SDS011;4334;49.982;8.398;2022-12-10T15:13:53;12.53;;;8.23;;
8592;SDS011;4334;49.982;8.398;2022-12-10T15:16:27;14.60;;;8.57;;
8592;SDS011;4334;49.982;8.398;2022-12-10T15:19:06;13.97;;;9.07;;